Time;durP1;ratioP1;P1;durP2;ratioP2;P2;SDS_P1;SDS_P2;PMS_P1;PMS_P2;Temp;Humidity;BMP_temperature;BMP_pressure;BME280_temperature;BME280_humidity;BME280_pressure;Samples;Min_cycle;Max_cycle;Signal;HPM_P1;HPM_P2
2023/09/14 00:02:15;;;;;;;5.65;4.57;;;;;;;21.21;45.40;100145.81;10200269;28;20286;-74
2023/09/14 00:07:17;;;;;;;5.82;4.90;;;;;;;19.08;49.58;100180.66;10205921;28;20954;-75
2023/09/14 00:12:21;;;;;;;5.50;5.00;;;;;;;19.79;47.86;100213.38;10202862;28;20688;-76
2023/09/14 00:17:23;;;;;;;6.18;4.70;;;;;;;17.67;52.12;100176.03;10202419;28;20223;-74
2023/09/14 00:22:24;;;;;;;4.55;4.15;;;;;;;17.49;52.53;100184.06;10208842;28;20259;-76
2023/09/14 00:27:26;;;;;;;4.82;3.80;;;;;;;18.30;51.12;100147.06;10207619;28;20289;-76
2023/09/14 00:32:28;;;;;;;4.60;4.20;;;;;;;18.45;51.41;100117.69;10208041;28;20239;-77
2023/09/14 00:37:29;;;;;;;4.63;4.15;;;;;;;18.17;51.24;100145.34;10203527;28;20231;-77
2023/09/14 00:42:38;;;;;;;3.80;3.40;;;;;;;17.41;53.06;100158.16;10211461;28;20235;-73
2023/09/14 00:47:45;;;;;;;5.37;3.57;;;;;;;17.82;52.24;100128.84;10202043;28;20866;-76
2023/09/14 00:52:53;;;;;;;4.10;3.27;;;;;;;17.65;52.46;100139.44;10205828;28;20239;-74
2023/09/14 00:57:56;;;;;;;4.13;3.50;;;;;;;17.75;52.57;100099.16;10213379;28;20847;-76
2023/09/14 01:02:58;;;;;;;4.30;3.20;;;;;;;17.55;52.79;100116.38;10398599;28;20706;-74
2023/09/14 01:08:01;;;;;;;4.10;3.70;;;;;;;19.75;48.16;100109.00;10210589;28;20233;-77
2023/09/14 01:13:03;;;;;;;3.55;3.25;;;;;;;19.70;47.68;100203.91;10209539;28;20235;-76
2023/09/14 01:18:19;;;;;;;3.78;3.20;;;;;;;17.89;51.50;100243.31;10215354;28;20204;-75
2023/09/14 01:23:31;;;;;;;3.50;3.03;;;;;;;19.56;48.62;100195.97;10203121;28;20243;-75
2023/09/14 01:28:33;;;;;;;6.65;3.20;;;;;;;19.73;47.83;100179.81;10201109;28;20247;-75
2023/09/14 01:33:36;;;;;;;3.78;2.78;;;;;;;19.82;47.90;100201.19;10207328;28;20303;-75
2023/09/14 01:38:40;;;;;;;3.20;2.90;;;;;;;18.42;49.88;100245.50;10201310;28;20238;-75
2023/09/14 01:43:45;;;;;;;4.78;3.03;;;;;;;17.98;51.16;100181.56;10218679;28;20240;-75
2023/09/14 01:48:46;;;;;;;3.10;2.80;;;;;;;17.35;51.85;100250.97;10196943;28;20239;-75
2023/09/14 01:53:48;;;;;;;3.92;2.90;;;;;;;16.95;52.82;100200.66;10206780;28;20228;-74
2023/09/14 01:58:50;;;;;;;3.00;2.47;;;;;;;18.20;50.43;100116.94;10200325;28;20258;-75
2023/09/14 02:03:52;;;;;;;2.90;2.60;;;;;;;16.53;52.59;100192.09;10202293;28;20242;-75
2023/09/14 02:08:54;;;;;;;2.70;2.40;;;;;;;17.27;51.01;100160.09;10200393;28;20865;-75
2023/09/14 02:13:56;;;;;;;3.58;2.33;;;;;;;16.01;52.79;100213.66;10209396;28;20785;-75
2023/09/14 02:18:57;;;;;;;2.57;2.27;;;;;;;16.84;51.26;100165.34;10201962;28;20322;-74
2023/09/14 02:24:00;;;;;;;3.07;2.27;;;;;;;16.54;51.06;100196.47;10200812;28;20233;-75
2023/09/14 02:29:03;;;;;;;2.50;2.30;;;;;;;16.58;50.28;100230.16;10206874;28;20239;-76
2023/09/14 02:34:04;;;;;;;3.13;2.30;;;;;;;18.58;46.81;100159.25;10200352;28;20371;-75
2023/09/14 02:39:06;;;;;;;3.80;2.00;;;;;;;18.70;46.18;100203.47;10201639;28;20717;-75
2023/09/14 02:44:08;;;;;;;3.20;2.00;;;;;;;18.43;46.60;100220.06;10204218;28;20256;-75
2023/09/14 02:49:09;;;;;;;2.70;1.80;;;;;;;17.43;48.30;100272.34;10202517;28;20594;-75
2023/09/14 02:54:11;;;;;;;2.97;2.00;;;;;;;18.50;46.68;100227.28;10205868;28;20240;-75
2023/09/14 02:59:16;;;;;;;3.07;2.23;;;;;;;18.30;46.34;100279.81;10198168;28;20263;-76
2023/09/14 03:04:18;;;;;;;2.17;1.93;;;;;;;17.48;47.21;100333.94;10208199;28;20234;-75
2023/09/14 03:09:20;;;;;;;2.83;2.13;;;;;;;18.08;46.89;100238.75;10240196;28;20240;-74
2023/09/14 03:14:21;;;;;;;3.27;1.87;;;;;;;17.75;47.71;100196.59;10248630;28;20360;-75
2023/09/14 03:19:23;;;;;;;2.67;1.57;;;;;;;17.78;47.30;100219.66;10254509;28;20608;-74
2023/09/14 03:24:25;;;;;;;4.97;2.30;;;;;;;15.79;50.43;100282.34;10245011;28;20238;-76
2023/09/14 03:29:27;;;;;;;2.47;1.80;;;;;;;16.31;50.08;100225.84;10233339;28;20368;-75
2023/09/14 03:34:29;;;;;;;3.27;1.67;;;;;;;17.16;48.63;100196.81;10262326;28;20246;-81
2023/09/14 03:39:31;;;;;;;2.30;2.07;;;;;;;15.64;50.30;100304.97;10218738;28;20246;-76
2023/09/14 03:44:32;;;;;;;2.30;2.00;;;;;;;15.98;50.14;100256.41;10220924;28;20439;-74
2023/09/14 03:49:34;;;;;;;2.77;2.13;;;;;;;16.05;50.46;100178.97;10220715;28;20619;-75
2023/09/14 03:54:36;;;;;;;1.97;1.77;;;;;;;15.13;51.78;100229.97;10221464;28;20749;-74
2023/09/14 03:59:38;;;;;;;3.63;2.60;;;;;;;15.72;50.90;100200.59;10214080;28;20239;-76
2023/09/14 04:04:44;;;;;;;1.80;1.70;;;;;;;15.88;50.50;100201.00;10219057;28;22328;-75
2023/09/14 04:09:46;;;;;;;2.53;2.00;;;;;;;16.22;49.04;100209.03;10233372;28;20250;-76
2023/09/14 04:14:47;;;;;;;3.47;1.80;;;;;;;15.60;48.71;100319.06;10219120;28;20228;-76
2023/09/14 04:19:51;;;;;;;2.57;2.30;;;;;;;16.51;48.13;100247.41;10211141;28;20236;-76
2023/09/14 04:25:01;;;;;;;3.10;2.37;;;;;;;16.48;48.58;100205.44;10221114;28;20245;-77
2023/09/14 04:30:08;;;;;;;4.47;1.83;;;;;;;15.58;49.67;100270.72;10220062;28;20246;-75
2023/09/14 04:35:34;;;;;;;;;;;;;;;;;;;;;
2023/09/14 04:41:46;;;;;;;3.60;2.40;;;;;;;14.52;52.22;100255.00;10225164;28;20240;-76
2023/09/14 04:47:48;;;;;;;3.70;2.10;;;;;;;14.95;50.79;100317.59;10193810;28;20497;-76
2023/09/14 04:53:06;;;;;;;3.23;2.47;;;;;;;14.69;50.98;100285.09;10169434;23;20520;-76
2023/09/14 04:58:24;;;;;;;4.33;2.20;;;;;;;14.24;51.78;100312.41;10409021;28;20251;-76
2023/09/14 05:05:31;;;;;;;3.57;2.10;;;;;;;13.65;54.42;100147.63;10313379;28;20340;-75
2023/09/14 05:11:05;;;;;;;4.00;2.37;;;;;;;12.41;56.26;100228.31;10313382;28;20247;-77
2023/09/14 05:16:25;;;;;;;3.40;2.20;;;;;;;13.13;54.56;100216.00;10215634;28;20239;-76
2023/09/14 05:21:30;;;;;;;2.90;2.60;;;;;;;12.34;57.02;100212.13;10211643;28;20246;-76
2023/09/14 05:26:37;;;;;;;3.40;2.10;;;;;;;13.35;54.36;100173.03;10202085;28;20243;-76
2023/09/14 05:31:39;;;;;;;3.13;2.83;;;;;;;13.88;53.34;100157.28;10213139;28;20231;-76
2023/09/14 05:36:43;;;;;;;2.90;2.30;;;;;;;13.87;53.32;100195.97;10209574;28;20577;-76
2023/09/14 05:41:45;;;;;;;5.47;2.67;;;;;;;13.62;54.15;100203.66;10202236;28;20738;-77
2023/09/14 05:47:02;;;;;;;3.87;2.43;;;;;;;14.07;53.82;100154.94;10199643;28;20239;-76
2023/09/14 05:52:08;;;;;;;4.30;2.27;;;;;;;14.08;52.45;100246.22;10232277;28;20238;-76
2023/09/14 05:57:10;;;;;;;4.57;2.30;;;;;;;15.20;51.40;100208.41;10204056;28;20481;-76
2023/09/14 06:02:14;;;;;;;2.90;2.27;;;;;;;13.68;53.55;100313.13;10189407;28;20243;-77
2023/09/14 06:07:25;;;;;;;5.33;2.60;;;;;;;14.69;50.86;100355.16;10200550;28;20236;-76
2023/09/14 06:13:10;;;;;;;3.70;2.30;;;;;;;14.24;52.24;100325.00;10197908;28;20252;-77
2023/09/14 06:18:28;;;;;;;5.57;3.10;;;;;;;14.24;52.95;100288.19;10187578;28;20258;-77
2023/09/14 06:23:29;;;;;;;5.30;2.70;;;;;;;14.34;52.84;100294.03;10173775;28;20240;-77
2023/09/14 06:28:31;;;;;;;5.00;2.67;;;;;;;15.50;50.75;100285.22;10176994;28;20250;-77
2023/09/14 06:33:33;;;;;;;5.00;2.77;;;;;;;15.06;51.37;100313.50;10180586;28;20603;-78
2023/09/14 06:38:34;;;;;;;2.67;2.30;;;;;;;14.73;52.49;100306.06;10182501;28;20236;-77
2023/09/14 06:43:36;;;;;;;2.87;2.67;;;;;;;14.02;53.85;100319.66;10181855;28;20236;-75
2023/09/14 06:48:38;;;;;;;6.13;3.27;;;;;;;14.91;51.84;100312.81;10175065;28;20323;-76
2023/09/14 06:53:43;;;;;;;3.30;2.60;;;;;;;14.90;51.82;100354.28;10180983;28;20228;-75
2023/09/14 06:58:48;;;;;;;2.90;2.40;;;;;;;15.24;50.70;100364.16;10197943;28;20237;-76
2023/09/14 07:03:51;;;;;;;4.53;2.90;;;;;;;14.37;52.22;100369.03;10186836;28;20258;-76
2023/09/14 07:08:55;;;;;;;3.93;2.70;;;;;;;14.29;51.78;100393.41;10173818;28;20236;-76
2023/09/14 07:13:58;;;;;;;3.70;3.03;;;;;;;14.55;51.58;100378.47;10174150;28;20747;-76
2023/09/14 07:19:00;;;;;;;4.87;2.70;;;;;;;14.63;51.44;100383.72;10178293;28;20239;-75
2023/09/14 07:24:01;;;;;;;3.37;2.43;;;;;;;14.63;50.96;100402.56;10178544;28;20231;-76
2023/09/14 07:29:03;;;;;;;3.83;2.40;;;;;;;14.72;50.99;100395.97;10181549;28;20245;-75
2023/09/14 07:35:13;;;;;;;;;;;;;;;;;;;;;
2023/09/14 07:41:19;;;;;;;;;;;;;;;;;;;;;
2023/09/14 07:46:44;;;;;;;2.83;2.53;;;;;;;17.17;46.61;100405.84;10172936;28;20242;-76
2023/09/14 07:52:34;;;;;;;4.07;2.47;;;;;;;15.97;48.29;100473.38;10194793;28;20900;-76
2023/09/14 07:58:15;;;;;;;3.37;2.40;;;;;;;16.42;48.20;100385.38;10139238;28;20306;-76
2023/09/14 08:09:15;;;;;;;3.47;2.57;;;;;;;17.84;45.72;100354.13;10165577;28;20227;-75
2023/09/14 08:14:46;;;;;;;4.00;2.73;;;;;;;17.26;45.72;100401.88;10193845;28;20695;-76
2023/09/14 08:19:53;;;;;;;2.97;2.50;;;;;;;16.36;45.78;100506.91;10176070;28;20239;-78
2023/09/14 08:24:58;;;;;;;3.03;2.40;;;;;;;16.96;45.73;100379.91;10176432;28;20243;-77
2023/09/14 08:30:00;;;;;;;5.23;2.57;;;;;;;16.23;46.77;100457.22;10168209;28;20314;-76
2023/09/14 08:35:24;;;;;;;4.50;2.37;;;;;;;17.91;44.61;100371.16;10177664;28;20534;-77
2023/09/14 08:40:27;;;;;;;7.45;2.67;;;;;;;16.46;46.24;100436.28;10167527;28;20236;-76
2023/09/14 08:45:30;;;;;;;4.03;2.55;;;;;;;18.62;43.38;100323.03;10201546;28;20244;-77
2023/09/14 08:50:33;;;;;;;3.67;2.50;;;;;;;16.01;46.23;100442.22;10164380;28;20346;-77
2023/09/14 08:55:35;;;;;;;3.63;2.75;;;;;;;17.30;44.09;100408.50;10180962;28;20232;-76
2023/09/14 09:00:39;;;;;;;3.63;2.15;;;;;;;16.62;45.38;100442.09;10169358;28;20794;-77
2023/09/14 09:05:43;;;;;;;6.78;3.03;;;;;;;17.69;44.20;100379.59;10173401;28;20252;-75
2023/09/14 09:10:45;;;;;;;5.40;2.80;;;;;;;18.52;42.52;100342.50;10167976;28;20256;-76
2023/09/14 09:15:47;;;;;;;5.43;2.60;;;;;;;16.80;45.51;100391.97;10168323;28;20236;-75
2023/09/14 09:20:49;;;;;;;5.82;2.72;;;;;;;18.30;43.43;100395.47;10183926;28;20268;-76
2023/09/14 09:25:54;;;;;;;3.45;2.35;;;;;;;18.82;42.22;100393.31;10166776;28;20321;-76
2023/09/14 09:30:56;;;;;;;3.45;2.60;;;;;;;18.19;43.82;100391.56;10165516;28;20236;-76
2023/09/14 09:35:58;;;;;;;2.60;2.38;;;;;;;18.12;43.13;100459.31;10170661;28;20243;-77
2023/09/14 09:41:01;;;;;;;3.28;2.30;;;;;;;17.85;43.57;100448.66;10166960;28;20233;-77
2023/09/14 09:46:03;;;;;;;3.70;2.40;;;;;;;17.96;43.67;100403.81;10167270;28;20246;-77
2023/09/14 09:51:04;;;;;;;6.82;3.00;;;;;;;19.97;40.95;100312.88;10173143;28;20330;-75
2023/09/14 09:56:17;;;;;;;7.53;3.05;;;;;;;18.90;43.24;100351.50;10174056;28;20322;-77
2023/09/14 10:01:23;;;;;;;3.95;2.00;;;;;;;18.55;43.23;100360.22;10172059;28;20343;-76
2023/09/14 10:06:26;;;;;;;3.75;2.40;;;;;;;18.25;43.88;100355.47;10175634;28;20233;-75
2023/09/14 10:11:28;;;;;;;2.88;2.17;;;;;;;18.64;43.25;100362.41;10185389;28;20260;-77
2023/09/14 10:16:40;;;;;;;3.22;2.30;;;;;;;18.29;43.72;100397.34;10174898;28;20310;-74
2023/09/14 10:21:46;;;;;;;2.65;2.38;;;;;;;18.70;43.20;100389.69;10180497;28;20240;-77
2023/09/14 10:26:49;;;;;;;2.78;2.20;;;;;;;17.87;44.34;100408.66;10172620;28;20691;-76
2023/09/14 10:31:54;;;;;;;3.25;2.38;;;;;;;19.96;41.98;100313.97;10174009;28;20224;-76
2023/09/14 10:36:59;;;;;;;4.13;1.95;;;;;;;20.22;41.52;100379.81;10174937;28;20318;-75
2023/09/14 10:42:01;;;;;;;3.15;2.08;;;;;;;19.73;42.41;100378.00;10176925;28;21282;-76
2023/09/14 10:47:04;;;;;;;2.70;2.40;;;;;;;20.16;42.53;100343.53;10172694;28;20232;-76
2023/09/14 10:52:06;;;;;;;3.03;2.05;;;;;;;20.34;41.28;100336.34;10169897;28;20247;-76
2023/09/14 10:57:27;;;;;;;3.35;2.53;;;;;;;21.33;40.46;100249.16;10178323;28;20238;-75
2023/09/14 11:06:42;;;;;;;2.55;2.35;;;;;;;19.12;43.51;100324.78;10500821;27;20847;-76
2023/09/14 11:11:50;;;;;;;2.53;2.22;;;;;;;17.82;44.54;100356.22;10462241;28;20235;-75
2023/09/14 11:16:56;;;;;;;4.25;2.42;;;;;;;19.91;42.94;100263.06;10458493;28;20655;-77
2023/09/14 11:22:03;;;;;;;2.63;2.35;;;;;;;20.12;42.35;100228.22;10456163;28;20315;-75
2023/09/14 11:27:09;;;;;;;3.92;2.33;;;;;;;20.21;41.98;100330.09;10451026;28;20228;-75
2023/09/14 11:32:22;;;;;;;2.40;2.13;;;;;;;19.48;43.41;100283.13;10450057;28;20227;-76
2023/09/14 11:37:26;;;;;;;4.68;2.28;;;;;;;20.32;42.91;100233.31;10435812;28;20231;-75
2023/09/14 11:43:06;;;;;;;4.25;2.67;;;;;;;19.31;43.71;100325.56;10449271;28;20701;-75
2023/09/14 11:48:17;;;;;;;4.55;2.50;;;;;;;20.73;42.76;100187.91;10486208;28;20253;-75
2023/09/14 11:53:24;;;;;;;5.85;2.55;;;;;;;20.65;42.66;100238.09;10482962;28;20247;-76
2023/09/14 11:58:26;;;;;;;4.55;2.53;;;;;;;20.85;42.60;100236.84;10487136;28;20349;-75
2023/09/14 12:03:28;;;;;;;2.38;1.88;;;;;;;21.36;41.58;100197.00;10473886;28;20235;-76
2023/09/14 12:08:30;;;;;;;2.47;2.15;;;;;;;21.07;42.09;100247.91;10462515;28;20223;-77
2023/09/14 12:13:32;;;;;;;3.88;2.45;;;;;;;20.90;42.24;100222.53;10478150;28;20604;-76
2023/09/14 12:18:40;;;;;;;3.33;2.20;;;;;;;20.92;42.03;100226.66;10462984;28;20236;-78
2023/09/14 12:23:45;;;;;;;3.35;2.42;;;;;;;21.42;41.95;100209.63;10459616;28;20581;-83
2023/09/14 12:28:53;;;;;;;3.90;2.10;;;;;;;20.76;42.08;100249.16;10481173;28;20231;-82
2023/09/14 12:33:55;;;;;;;7.50;2.35;;;;;;;21.08;42.12;100229.66;10470293;28;20290;-82
2023/09/14 12:38:57;;;;;;;5.85;2.25;;;;;;;21.08;42.14;100229.66;10482144;28;20227;-80
2023/09/14 12:43:59;;;;;;;6.20;2.58;;;;;;;20.78;42.57;100245.16;10485954;28;20235;-82
2023/09/14 12:49:01;;;;;;;3.55;2.42;;;;;;;20.09;42.37;100288.44;10486402;28;20784;-81
2023/09/14 12:54:04;;;;;;;6.68;2.15;;;;;;;21.71;41.37;100159.69;10464727;28;20231;-77
2023/09/14 12:59:06;;;;;;;3.83;2.25;;;;;;;20.48;43.04;100186.38;10463296;28;20321;-74
2023/09/14 13:04:10;;;;;;;3.08;2.25;;;;;;;21.59;41.50;100140.72;10462858;28;20239;-74
2023/09/14 13:09:19;;;;;;;3.65;2.33;;;;;;;21.22;41.92;100204.63;10459497;28;20235;-74
2023/09/14 13:14:22;;;;;;;5.97;2.50;;;;;;;22.14;40.72;100087.28;10476396;28;20227;-73
2023/09/14 13:19:25;;;;;;;4.35;2.90;;;;;;;21.35;41.36;100149.03;10484004;28;20232;-74
2023/09/14 13:24:27;;;;;;;4.20;2.47;;;;;;;21.45;41.65;100162.03;10444525;28;20235;-74
2023/09/14 13:29:29;;;;;;;5.32;2.28;;;;;;;21.13;42.15;100192.50;10459966;28;20254;-75
2023/09/14 13:34:33;;;;;;;4.07;2.47;;;;;;;20.89;41.59;100257.06;10457688;28;20318;-75
2023/09/14 13:39:35;;;;;;;4.63;2.38;;;;;;;21.89;41.38;100115.00;10458423;28;20718;-74
2023/09/14 13:44:36;;;;;;;3.20;2.40;;;;;;;21.96;40.29;100145.63;10454645;28;20236;-76
2023/09/14 13:49:38;;;;;;;3.28;2.40;;;;;;;21.64;40.25;100200.69;10452138;28;20881;-75
2023/09/14 13:54:40;;;;;;;3.22;2.15;;;;;;;22.37;39.82;100126.22;10456555;28;20290;-75
2023/09/14 13:59:43;;;;;;;4.38;2.30;;;;;;;21.51;41.10;100176.53;10461964;28;20232;-75
2023/09/14 14:04:45;;;;;;;2.83;2.00;;;;;;;23.21;38.97;100070.31;10453841;28;20702;-74
2023/09/14 14:09:47;;;;;;;4.10;2.33;;;;;;;21.39;40.43;100180.19;10456129;28;22490;-75
2023/09/14 14:14:50;;;;;;;2.75;1.90;;;;;;;21.75;41.14;100128.16;10446304;28;20226;-74
2023/09/14 14:19:54;;;;;;;4.70;2.15;;;;;;;22.10;40.27;100135.16;10457875;28;20259;-74
2023/09/14 14:24:55;;;;;;;2.63;2.13;;;;;;;21.79;40.37;100164.69;10457102;28;20828;-75
2023/09/14 14:29:57;;;;;;;2.88;2.15;;;;;;;22.06;40.33;100072.19;10434681;28;20626;-73
2023/09/14 14:34:59;;;;;;;2.20;2.00;;;;;;;22.23;40.10;100093.09;10459148;28;20318;-74
2023/09/14 14:40:04;;;;;;;5.45;2.20;;;;;;;22.12;40.17;100097.63;10451239;28;21293;-75
2023/09/14 14:45:07;;;;;;;4.95;1.90;;;;;;;21.99;40.73;100076.19;10456121;28;20724;-74
2023/09/14 14:50:09;;;;;;;3.03;2.00;;;;;;;22.40;40.06;100087.53;10452524;28;20338;-77
2023/09/14 14:55:11;;;;;;;5.75;1.95;;;;;;;21.86;40.56;100140.00;10457598;28;20234;-75
2023/09/14 15:00:13;;;;;;;5.53;1.80;;;;;;;21.94;39.96;100143.16;10436619;28;20223;-76
2023/09/14 15:05:16;;;;;;;3.85;2.15;;;;;;;21.71;40.29;100146.06;10450815;28;20250;-77
2023/09/14 15:10:18;;;;;;;2.88;1.98;;;;;;;21.07;40.13;100130.91;10456282;28;20239;-72
2023/09/14 15:15:19;;;;;;;2.17;1.48;;;;;;;21.15;40.49;100095.09;10454961;28;20228;-71
2023/09/14 15:20:21;;;;;;;3.40;1.80;;;;;;;21.78;39.99;100076.72;10451845;28;20265;-73
2023/09/14 15:25:23;;;;;;;2.08;1.77;;;;;;;21.46;40.11;100086.63;10452402;28;20702;-77
2023/09/14 15:30:27;;;;;;;3.97;1.85;;;;;;;21.61;39.73;100105.91;10445813;28;20374;-76
2023/09/14 15:35:29;;;;;;;1.77;1.63;;;;;;;22.24;39.25;100056.59;10429340;28;20235;-75
2023/09/14 15:40:31;;;;;;;2.47;1.40;;;;;;;21.59;39.55;100108.03;10447675;28;20323;-72
2023/09/14 15:45:42;;;;;;;2.00;1.70;;;;;;;20.95;41.13;100097.50;10449700;28;20342;-73
2023/09/14 15:50:45;;;;;;;3.38;1.67;;;;;;;21.69;39.27;100100.00;10457387;28;20737;-74
2023/09/14 15:55:47;;;;;;;3.58;1.58;;;;;;;22.55;38.89;100026.94;10458438;28;20254;-75
2023/09/14 16:00:49;;;;;;;3.70;1.73;;;;;;;21.18;40.50;100036.66;10444073;28;20235;-75
2023/09/14 16:05:52;;;;;;;1.98;1.70;;;;;;;21.24;40.06;100077.31;10462063;28;20235;-73
2023/09/14 16:10:55;;;;;;;4.32;1.98;;;;;;;21.58;40.18;100062.84;10436031;28;20389;-74
2023/09/14 16:15:56;;;;;;;4.03;2.08;;;;;;;21.70;39.83;100063.56;10458687;28;20234;-74
2023/09/14 16:20:59;;;;;;;3.50;1.83;;;;;;;21.27;40.47;100042.50;10454166;28;20236;-73
2023/09/14 16:26:01;;;;;;;1.50;1.40;;;;;;;21.40;39.69;100074.84;10443063;28;20365;-76
2023/09/14 16:31:02;;;;;;;2.47;1.50;;;;;;;20.99;39.99;100139.47;10464686;28;20237;-74
2023/09/14 16:36:05;;;;;;;2.97;1.63;;;;;;;21.63;38.93;100117.38;10460354;28;20312;-74
2023/09/14 16:41:07;;;;;;;2.35;1.48;;;;;;;21.96;38.76;100069.34;10441618;28;20238;-74
2023/09/14 16:46:09;;;;;;;2.83;1.48;;;;;;;19.61;41.10;100138.28;10460406;28;20313;-74
2023/09/14 16:51:10;;;;;;;3.13;2.00;;;;;;;20.01;40.73;100102.25;10462706;28;21205;-74
2023/09/14 16:56:12;;;;;;;1.77;1.60;;;;;;;21.69;38.95;100029.22;10462666;28;20227;-76
2023/09/14 17:01:18;;;;;;;2.80;1.60;;;;;;;20.53;40.41;100041.59;10463593;28;20739;-73
2023/09/14 17:06:21;;;;;;;1.95;1.75;;;;;;;20.36;40.07;100057.03;10457771;28;20631;-74
2023/09/14 17:11:22;;;;;;;27.80;2.97;;;;;;;20.64;39.80;100072.47;10458558;28;20777;-74
2023/09/14 17:16:25;;;;;;;3.63;1.65;;;;;;;21.09;38.79;100136.09;10450101;28;20313;-77
2023/09/14 17:21:28;;;;;;;2.72;1.60;;;;;;;21.18;38.63;100105.50;10450497;28;20223;-68
2023/09/14 17:26:30;;;;;;;2.35;1.85;;;;;;;21.31;39.19;100066.25;10455938;28;20249;-68
2023/09/14 17:31:33;;;;;;;1.90;1.70;;;;;;;20.88;39.49;100073.19;10456168;28;20264;-70
2023/09/14 17:36:35;;;;;;;2.60;1.58;;;;;;;20.77;39.02;100076.81;10454336;28;20258;-69
2023/09/14 17:41:38;;;;;;;3.47;1.63;;;;;;;20.40;39.45;100109.84;10455263;28;20838;-68
2023/09/14 17:46:40;;;;;;;2.15;1.48;;;;;;;19.97;40.33;100084.75;10456184;28;20768;-67
2023/09/14 17:51:42;;;;;;;3.10;1.90;;;;;;;19.14;41.87;100075.84;10461048;28;20779;-77
2023/09/14 17:56:44;;;;;;;2.35;2.05;;;;;;;19.86;40.67;100069.34;10457069;28;20223;-77
2023/09/14 18:01:45;;;;;;;2.83;1.77;;;;;;;19.84;40.44;100047.84;10463156;28;20241;-73
2023/09/14 18:06:47;;;;;;;2.67;1.73;;;;;;;19.60;40.43;100095.91;10460942;28;20251;-74
2023/09/14 18:11:49;;;;;;;2.10;1.55;;;;;;;19.21;41.31;100103.66;10451985;28;20309;-72
2023/09/14 18:16:50;;;;;;;3.70;1.88;;;;;;;19.34;41.20;100064.63;10452890;28;20759;-74
2023/09/14 18:21:53;;;;;;;2.00;1.75;;;;;;;20.02;40.42;100048.72;10440862;28;20231;-75
2023/09/14 18:26:54;;;;;;;4.57;1.83;;;;;;;19.30;41.03;100080.56;10460828;28;20228;-78
2023/09/14 18:31:56;;;;;;;4.90;1.73;;;;;;;18.26;42.73;100106.03;10441208;28;20257;-70
2023/09/14 18:36:58;;;;;;;3.70;1.88;;;;;;;18.43;42.25;100110.88;10460588;28;20595;-70
2023/09/14 18:41:59;;;;;;;5.40;1.83;;;;;;;19.61;41.03;100012.63;10456562;28;20249;-73
2023/09/14 18:47:03;;;;;;;3.22;2.17;;;;;;;18.66;42.32;100085.75;10459434;28;20629;-70
2023/09/14 18:52:05;;;;;;;4.40;1.80;;;;;;;17.33;44.62;100134.88;10454822;28;20244;-71
2023/09/14 18:57:07;;;;;;;4.47;1.80;;;;;;;17.03;45.13;100102.28;10449809;28;20622;-77
2023/09/14 19:02:08;;;;;;;5.03;1.85;;;;;;;16.97;45.00;100116.66;10458994;28;20330;-72
2023/09/14 19:07:12;;;;;;;3.97;1.80;;;;;;;16.88;45.11;100099.84;10459196;28;20241;-72
2023/09/14 19:12:14;;;;;;;3.30;1.73;;;;;;;17.07;44.48;100072.91;10460382;28;20330;-77
2023/09/14 19:17:16;;;;;;;2.65;2.00;;;;;;;17.28;43.87;100093.34;10438414;28;20235;-75
2023/09/14 19:22:18;;;;;;;2.63;2.10;;;;;;;17.02;44.43;100084.38;10432879;28;20319;-78
2023/09/14 19:27:20;;;;;;;3.47;1.93;;;;;;;18.19;42.09;100080.13;10445107;28;20283;-75
2023/09/14 19:32:21;;;;;;;2.97;1.70;;;;;;;18.58;41.62;100086.88;10466729;28;20658;-76
2023/09/14 19:37:23;;;;;;;4.53;1.77;;;;;;;18.36;42.49;100070.31;10456303;28;20287;-74
2023/09/14 19:42:26;;;;;;;3.92;1.85;;;;;;;17.75;42.73;100144.31;10459950;28;20339;-74
2023/09/14 19:47:29;;;;;;;2.38;1.75;;;;;;;17.88;43.14;100084.63;10462256;28;20676;-76
2023/09/14 19:52:39;;;;;;;3.40;1.90;;;;;;;17.16;44.65;100083.25;10462162;28;20228;-77
2023/09/14 19:57:41;;;;;;;4.90;2.25;;;;;;;16.56;45.44;100132.25;10448059;28;20254;-77
2023/09/14 20:02:46;;;;;;;3.00;1.93;;;;;;;16.61;45.43;100096.50;10458802;28;20327;-78
2023/09/14 20:07:48;;;;;;;2.87;2.03;;;;;;;16.58;45.46;100102.31;10458811;28;20768;-76
2023/09/14 20:12:50;;;;;;;4.17;2.03;;;;;;;17.01;45.08;100044.09;10458690;28;20354;-76
2023/09/14 20:17:52;;;;;;;2.60;1.80;;;;;;;17.09;44.59;100070.81;10462354;28;20219;-75
2023/09/14 20:22:54;;;;;;;3.97;2.00;;;;;;;16.68;45.53;100107.25;10441837;28;20238;-75
2023/09/14 20:27:56;;;;;;;4.13;2.20;;;;;;;16.72;45.22;100106.63;10461721;28;20248;-75
2023/09/14 20:32:58;;;;;;;4.60;2.10;;;;;;;17.36;44.23;100093.88;10464428;28;20272;-76
2023/09/14 20:37:59;;;;;;;2.60;1.67;;;;;;;17.79;43.73;100032.69;10442547;28;20701;-74
2023/09/14 20:43:01;;;;;;;5.37;2.20;;;;;;;17.85;44.38;100025.53;10459234;28;20357;-76
2023/09/14 20:48:04;;;;;;;5.27;2.13;;;;;;;17.69;44.08;100089.22;10459933;28;20208;-73
2023/09/14 20:53:07;;;;;;;3.90;2.17;;;;;;;18.28;42.82;100116.66;10463358;28;20219;-78
2023/09/14 20:58:09;;;;;;;3.50;2.23;;;;;;;16.50;45.69;100156.59;10442716;28;20317;-77
2023/09/14 21:03:11;;;;;;;4.57;2.50;;;;;;;16.56;45.76;100128.72;10459256;28;20289;-73
2023/09/14 21:08:15;;;;;;;3.77;2.23;;;;;;;16.59;46.00;100058.88;10464042;28;20235;-71
2023/09/14 21:13:16;;;;;;;3.53;2.00;;;;;;;17.52;44.90;99983.44;10455220;28;21225;-75
2023/09/14 21:18:21;;;;;;;3.33;2.03;;;;;;;17.63;44.88;99960.22;10455715;28;20251;-75
2023/09/14 21:23:23;;;;;;;3.00;1.70;;;;;;;18.20;43.78;99989.66;10462241;28;20248;-73
2023/09/14 21:28:26;;;;;;;4.37;2.07;;;;;;;16.55;46.13;100100.06;10458720;28;20274;-73
2023/09/14 21:33:28;;;;;;;5.13;1.90;;;;;;;16.91;45.67;100061.56;10438169;28;20235;-73
2023/09/14 21:38:30;;;;;;;3.60;2.00;;;;;;;17.07;45.97;100035.88;10453047;28;20356;-74
2023/09/14 21:43:36;;;;;;;6.13;2.67;;;;;;;15.81;48.02;100054.47;10458572;28;20611;-75
2023/09/14 21:48:38;;;;;;;2.90;2.03;;;;;;;15.39;48.54;100062.00;10451463;28;20231;-74
2023/09/14 21:53:40;;;;;;;4.10;2.07;;;;;;;15.37;48.50;100085.66;10439532;28;20223;-73
2023/09/14 21:58:41;;;;;;;1.80;1.70;;;;;;;16.16;47.40;99981.25;10452327;28;20233;-73
2023/09/14 22:03:43;;;;;;;4.50;2.07;;;;;;;15.12;48.74;100086.28;10456393;28;20251;-73
2023/09/14 22:08:52;;;;;;;5.70;2.27;;;;;;;15.20;49.21;100007.09;10455133;28;20228;-73
2023/09/14 22:13:54;;;;;;;2.63;2.03;;;;;;;15.67;48.18;99988.09;10459367;28;20624;-75
2023/09/14 22:18:57;;;;;;;5.20;2.20;;;;;;;15.72;48.64;99966.72;10453432;28;20318;-73
2023/09/14 22:24:04;;;;;;;3.73;2.40;;;;;;;15.09;49.39;100013.09;10461985;28;20228;-74
2023/09/14 22:29:05;;;;;;;3.10;1.83;;;;;;;14.84;49.98;100043.38;10452866;28;20321;-74
2023/09/14 22:34:07;;;;;;;3.80;2.10;;;;;;;16.14;48.24;99906.91;10454535;28;20323;-75
2023/09/14 22:39:10;;;;;;;2.63;2.07;;;;;;;15.18;49.11;100056.84;10459051;28;20224;-73
2023/09/14 22:44:12;;;;;;;6.90;2.40;;;;;;;14.93;49.72;100079.84;10441490;28;20232;-74
2023/09/14 22:49:13;;;;;;;6.20;2.20;;;;;;;14.42;51.39;100025.69;10451129;28;20223;-73
2023/09/14 22:54:17;;;;;;;2.70;1.87;;;;;;;15.08;49.92;99988.03;10453925;28;20733;-74
2023/09/14 22:59:18;;;;;;;2.93;1.93;;;;;;;14.76;50.91;99989.66;10449682;28;20862;-73
2023/09/14 23:04:21;;;;;;;4.43;2.60;;;;;;;14.50;50.91;100038.94;10440784;28;20596;-74
2023/09/14 23:09:24;;;;;;;3.27;2.30;;;;;;;14.24;50.78;100080.94;10433890;28;20239;-74
2023/09/14 23:14:30;;;;;;;6.57;2.67;;;;;;;14.93;49.92;100017.88;10459846;28;20752;-73
2023/09/14 23:19:32;;;;;;;4.33;2.40;;;;;;;15.21;49.75;99995.25;10437630;28;20232;-73
2023/09/14 23:24:34;;;;;;;5.80;2.63;;;;;;;15.03;50.64;99951.94;10456244;28;20243;-73
2023/09/14 23:29:35;;;;;;;3.57;2.20;;;;;;;14.80;50.29;100014.34;10452723;28;20238;-74
2023/09/14 23:34:43;;;;;;;3.17;2.50;;;;;;;14.95;49.83;100013.13;10457608;28;20923;-74
2023/09/14 23:39:45;;;;;;;3.67;2.57;;;;;;;14.42;50.80;100034.56;10459765;28;20263;-73
2023/09/14 23:44:47;;;;;;;4.20;2.20;;;;;;;15.13;49.61;99969.38;10452920;28;20227;-73